Rivadeo, Argentina
Current Conditions -  °F | °C
As of 11:00 AM on Saturday 22 Nov 2014 (Local Time) from SAZN Reporting Station
Clear Clear  
Wind Chill: 22°   Ceiling: Unl
Heat Index: 22°   Visibility: 6mi
Dew Point:   Wind: 7mph
Humidity: 31%   Direction: 230°SW
Pressure: 29.91"   Gusts: NA
Location:  38.15°S, 63.06°W
Report Text: SAZN 221400Z 23006KT CAVOK 22/04 Q1013
Loading
Personal Weather Stations






























Interactive Weather Map New forecast layout! Learn more

10-Day Weather Forecast

Advertisements
Track Severe Weather on mobile